Time;durP1;ratioP1;P1;durP2;ratioP2;P2;SDS_P1;SDS_P2;PMS_P1;PMS_P2;Temp;Humidity;BMP_temperature;BMP_pressure;BME280_temperature;BME280_humidity;BME280_pressure;Samples;Min_cycle;Max_cycle;Signal;HPM_P1;HPM_P2
2021/09/19 00:02:24;;;;;;;6.05;2.45;;;;;;;13.88;61.69;99830.47;10395015;28;20053;-64
2021/09/19 00:07:26;;;;;;;5.35;2.80;;;;;;;13.81;62.01;99831.91;10393222;28;20360;-63
2021/09/19 00:12:28;;;;;;;5.10;3.00;;;;;;;13.72;62.35;99828.16;10394261;28;20433;-63
2021/09/19 00:17:30;;;;;;;6.32;3.30;;;;;;;13.54;62.55;99824.28;10394709;28;20413;-63
2021/09/19 00:22:32;;;;;;;5.53;2.95;;;;;;;13.48;62.56;99834.38;10393920;28;20057;-64
2021/09/19 00:27:34;;;;;;;6.80;3.00;;;;;;;13.48;62.68;99829.13;10393888;28;20417;-63
2021/09/19 00:32:37;;;;;;;5.38;3.05;;;;;;;13.47;62.66;99824.84;10394110;28;20081;-63
2021/09/19 00:37:39;;;;;;;7.45;3.05;;;;;;;13.42;62.89;99824.28;10391985;28;20529;-64
2021/09/19 00:42:41;;;;;;;6.03;3.30;;;;;;;13.28;62.97;99829.72;10393085;28;20537;-63
2021/09/19 00:47:44;;;;;;;7.13;3.38;;;;;;;13.04;63.19;99821.81;10393641;28;20045;-63
2021/09/19 00:52:46;;;;;;;5.28;3.58;;;;;;;12.93;63.74;99827.84;10393453;28;20064;-64
2021/09/19 00:57:51;;;;;;;8.35;2.97;;;;;;;12.95;63.64;99811.97;10392759;28;20111;-64
2021/09/19 01:02:54;;;;;;;4.13;2.70;;;;;;;12.99;63.97;99821.28;10393132;28;20168;-64
2021/09/19 01:07:58;;;;;;;8.18;2.80;;;;;;;12.95;63.87;99828.56;10392567;28;20056;-64
2021/09/19 01:13:00;;;;;;;7.55;3.13;;;;;;;12.99;63.80;99823.91;10393014;28;20100;-64
2021/09/19 01:18:03;;;;;;;5.80;3.20;;;;;;;12.91;63.65;99813.13;10392753;28;20153;-64
2021/09/19 01:23:09;;;;;;;5.72;3.20;;;;;;;12.73;64.00;99810.03;10392692;28;20782;-64
2021/09/19 01:28:12;;;;;;;7.90;3.40;;;;;;;12.74;64.11;99806.44;10392382;28;20100;-64
2021/09/19 01:33:14;;;;;;;4.93;2.97;;;;;;;12.74;64.15;99809.06;10392690;28;20155;-64
2021/09/19 01:38:16;;;;;;;6.03;2.95;;;;;;;12.74;64.06;99803.81;10392100;28;20413;-64
2021/09/19 01:43:18;;;;;;;7.80;3.60;;;;;;;12.71;64.19;99796.19;10391909;28;20705;-64
2021/09/19 01:48:20;;;;;;;5.43;2.72;;;;;;;12.66;64.17;99800.91;10392032;28;20060;-64
2021/09/19 01:53:22;;;;;;;4.40;3.13;;;;;;;12.44;64.69;99795.47;10397696;28;20149;-64
2021/09/19 01:58:25;;;;;;;7.43;3.78;;;;;;;12.35;64.54;99787.41;10399383;28;20053;-64
2021/09/19 02:03:27;;;;;;;4.43;3.20;;;;;;;12.29;64.62;99782.59;10399897;28;20060;-64
2021/09/19 02:08:29;;;;;;;4.43;2.83;;;;;;;12.31;64.86;99780.72;10397804;28;20049;-64
2021/09/19 02:13:31;;;;;;;5.88;2.80;;;;;;;12.36;64.89;99778.59;10398874;28;20429;-64
2021/09/19 02:18:33;;;;;;;8.07;2.55;;;;;;;12.38;64.92;99776.69;10399625;28;20087;-64
2021/09/19 02:23:35;;;;;;;3.75;2.65;;;;;;;12.36;64.74;99768.94;10398452;28;20490;-64
2021/09/19 02:28:37;;;;;;;4.88;3.05;;;;;;;12.15;65.01;99771.22;10398938;28;20402;-64
2021/09/19 02:33:38;;;;;;;4.38;2.42;;;;;;;12.19;65.32;99781.53;10398195;28;20049;-64
2021/09/19 02:38:40;;;;;;;4.63;2.80;;;;;;;12.05;65.53;99770.19;10398084;28;20057;-64
2021/09/19 02:43:42;;;;;;;4.43;3.17;;;;;;;12.06;65.36;99771.03;10397780;28;20510;-64
2021/09/19 02:48:43;;;;;;;6.97;3.00;;;;;;;12.12;65.15;99760.13;10397840;28;20486;-64
2021/09/19 02:53:46;;;;;;;6.22;3.40;;;;;;;12.07;65.25;99759.59;10397541;28;20544;-64
2021/09/19 02:58:47;;;;;;;6.43;3.50;;;;;;;12.02;65.33;99752.06;10396917;28;20063;-64
2021/09/19 03:03:49;;;;;;;5.88;3.25;;;;;;;11.83;65.80;99746.38;10396694;28;20429;-64
2021/09/19 03:08:51;;;;;;;5.75;3.40;;;;;;;11.82;65.24;99749.13;10397319;28;20666;-64
2021/09/19 03:13:53;;;;;;;7.22;3.30;;;;;;;11.84;65.85;99749.84;10396534;28;20566;-64
2021/09/19 03:18:55;;;;;;;5.85;2.90;;;;;;;11.92;65.68;99750.16;10396505;28;20429;-64
2021/09/19 03:23:57;;;;;;;6.15;3.88;;;;;;;11.92;65.48;99737.06;10396900;28;20494;-64
2021/09/19 03:28:59;;;;;;;7.32;3.05;;;;;;;11.72;65.69;99748.06;10394957;28;20056;-63
2021/09/19 03:34:00;;;;;;;6.30;3.50;;;;;;;11.59;65.70;99742.78;10394739;28;20053;-64
2021/09/19 03:39:03;;;;;;;5.15;3.35;;;;;;;11.63;65.67;99746.88;10395699;28;20087;-64
2021/09/19 03:44:06;;;;;;;7.20;3.30;;;;;;;11.61;65.63;99745.31;10395929;28;20444;-64
2021/09/19 03:49:08;;;;;;;8.27;4.45;;;;;;;11.53;65.85;99737.13;10395272;28;20558;-64
2021/09/19 03:54:09;;;;;;;7.70;3.20;;;;;;;11.55;65.80;99737.84;10395153;28;21022;-64
2021/09/19 03:59:11;;;;;;;4.57;2.70;;;;;;;11.59;65.51;99734.94;10394618;28;20068;-64
2021/09/19 04:04:13;;;;;;;6.15;3.05;;;;;;;11.58;65.59;99742.91;10394718;28;20398;-64
2021/09/19 04:09:14;;;;;;;6.70;3.72;;;;;;;11.59;65.23;99739.34;10394549;28;20057;-64
2021/09/19 04:14:16;;;;;;;5.65;4.25;;;;;;;11.49;65.57;99738.28;10392496;28;20088;-64
2021/09/19 04:19:18;;;;;;;4.30;3.13;;;;;;;11.46;65.85;99738.50;10430561;28;20057;-64
2021/09/19 04:24:19;;;;;;;6.32;2.72;;;;;;;11.45;65.80;99745.50;10435296;28;20107;-64
2021/09/19 04:29:21;;;;;;;4.63;3.10;;;;;;;11.46;65.53;99743.72;10427907;28;20057;-64
2021/09/19 04:34:23;;;;;;;7.10;3.28;;;;;;;11.46;65.61;99751.59;10393736;28;20060;-64
2021/09/19 04:39:25;;;;;;;7.85;4.32;;;;;;;11.35;65.87;99757.53;10393763;28;20053;-64
2021/09/19 04:44:26;;;;;;;7.07;3.28;;;;;;;11.36;65.75;99763.59;10393400;28;20144;-64
2021/09/19 04:49:28;;;;;;;4.80;3.28;;;;;;;11.32;65.56;99755.94;10393717;28;20140;-64
2021/09/19 04:54:30;;;;;;;6.47;3.33;;;;;;;11.21;65.00;99760.19;10393260;28;20068;-64
2021/09/19 04:59:32;;;;;;;4.28;2.85;;;;;;;11.10;64.95;99770.50;10391441;28;20065;-63
2021/09/19 05:04:33;;;;;;;24.27;4.05;;;;;;;11.11;65.58;99770.41;10393098;28;20049;-64
2021/09/19 05:09:35;;;;;;;27.48;4.70;;;;;;;11.18;65.17;99766.47;10392575;28;20054;-64
2021/09/19 05:14:37;;;;;;;14.85;4.65;;;;;;;11.02;65.35;99765.75;10392735;28;20581;-64
2021/09/19 05:19:38;;;;;;;4.05;3.05;;;;;;;11.10;65.63;99766.13;10392470;28;20057;-63
2021/09/19 05:24:40;;;;;;;75.65;5.10;;;;;;;10.93;65.54;99768.94;10394315;28;20045;-64
2021/09/19 05:29:42;;;;;;;77.65;5.07;;;;;;;10.79;66.19;99765.50;10400849;28;20061;-63
2021/09/19 05:34:44;;;;;;;5.22;4.40;;;;;;;10.87;65.97;99760.63;10400694;28;20444;-64
2021/09/19 05:39:45;;;;;;;5.40;3.60;;;;;;;11.03;65.97;99762.19;10400288;28;20061;-64
2021/09/19 05:44:47;;;;;;;5.97;3.20;;;;;;;11.24;65.65;99757.38;10400234;28;20087;-64
2021/09/19 05:49:49;;;;;;;3.88;3.10;;;;;;;11.32;65.52;99759.50;10400686;28;20455;-64
2021/09/19 05:54:50;;;;;;;5.93;4.13;;;;;;;11.45;65.12;99761.22;10398868;28;20059;-64
2021/09/19 05:59:52;;;;;;;12.90;4.63;;;;;;;11.52;65.02;99769.50;10399271;28;20061;-65
2021/09/19 06:04:54;;;;;;;4.47;3.50;;;;;;;11.79;64.97;99768.50;10399677;28;20049;-65
2021/09/19 06:09:56;;;;;;;7.45;3.60;;;;;;;12.17;64.41;99771.16;10440232;28;20067;-65
2021/09/19 06:14:57;;;;;;;7.35;3.03;;;;;;;12.54;63.73;99766.81;10439181;28;20049;-65
2021/09/19 06:19:59;;;;;;;4.53;2.65;;;;;;;12.80;63.10;99758.78;10439861;28;20052;-65
2021/09/19 06:25:01;;;;;;;11.55;2.70;;;;;;;13.08;62.32;99756.78;10439675;28;20049;-65
2021/09/19 06:30:05;;;;;;;9.27;3.25;;;;;;;13.24;62.20;99755.56;10426893;28;20141;-65
2021/09/19 06:35:08;;;;;;;7.35;5.18;;;;;;;13.32;62.25;99760.25;10398555;28;20151;-64
2021/09/19 06:40:11;;;;;;;10.45;6.18;;;;;;;13.21;62.62;99766.28;10397391;28;20057;-65
2021/09/19 06:45:12;;;;;;;8.18;6.55;;;;;;;13.28;62.65;99762.28;10398296;28;20068;-65
2021/09/19 06:50:14;;;;;;;15.02;9.88;;;;;;;13.09;62.93;99761.13;10397803;28;20053;-65
2021/09/19 06:55:16;;;;;;;9.23;6.85;;;;;;;12.98;63.59;99770.56;10397991;28;20133;-65
2021/09/19 07:00:17;;;;;;;8.23;5.32;;;;;;;13.14;63.46;99772.09;10395943;28;20092;-65
2021/09/19 07:05:19;;;;;;;9.65;7.63;;;;;;;13.43;63.10;99768.22;10397647;28;20053;-65
2021/09/19 07:10:21;;;;;;;8.77;6.28;;;;;;;13.77;62.50;99767.38;10396792;28;20061;-65
2021/09/19 07:15:23;;;;;;;10.27;6.18;;;;;;;14.15;61.55;99757.41;10395608;28;20144;-65
2021/09/19 07:20:25;;;;;;;9.35;6.25;;;;;;;14.49;61.01;99763.56;10396429;28;20847;-65
2021/09/19 07:25:26;;;;;;;8.90;5.93;;;;;;;14.89;60.26;99754.16;10396523;28;20053;-65
2021/09/19 07:30:28;;;;;;;8.35;6.10;;;;;;;15.19;59.92;99751.69;10394845;28;20049;-65
2021/09/19 07:35:30;;;;;;;8.60;5.70;;;;;;;15.48;59.59;99757.19;10396537;28;20076;-65
2021/09/19 07:40:32;;;;;;;8.85;7.25;;;;;;;15.82;58.90;99766.63;10395978;28;20065;-66
2021/09/19 07:45:35;;;;;;;8.57;6.55;;;;;;;15.75;59.13;99772.56;10395776;28;20278;-65
2021/09/19 07:50:37;;;;;;;8.27;6.30;;;;;;;15.65;59.16;99772.50;10394479;28;20148;-65
2021/09/19 07:55:39;;;;;;;6.80;5.57;;;;;;;15.69;59.61;99771.28;10395498;28;20332;-64
2021/09/19 08:00:41;;;;;;;7.45;5.45;;;;;;;15.99;58.82;99773.97;10394704;28;20164;-64
2021/09/19 08:05:42;;;;;;;6.13;5.30;;;;;;;16.30;58.07;99785.41;10394926;28;20081;-65
2021/09/19 08:10:44;;;;;;;6.70;4.50;;;;;;;16.82;56.97;99776.44;10394590;28;20450;-65
2021/09/19 08:15:46;;;;;;;6.32;4.90;;;;;;;17.22;56.12;99777.22;10394535;28;20057;-66
2021/09/19 08:20:48;;;;;;;6.75;4.70;;;;;;;17.58;55.44;99779.25;10394318;28;20065;-65
2021/09/19 08:25:49;;;;;;;7.13;4.50;;;;;;;17.59;55.10;99780.06;10393890;28;20064;-65
2021/09/19 08:30:51;;;;;;;6.13;4.00;;;;;;;18.09;54.38;99786.84;10393746;28;20452;-65
2021/09/19 08:35:56;;;;;;;6.20;3.80;;;;;;;17.66;54.26;99781.19;10394194;28;20414;-65
2021/09/19 08:40:58;;;;;;;6.22;3.42;;;;;;;17.37;55.19;99780.34;10393499;28;20057;-65
2021/09/19 08:46:01;;;;;;;4.32;3.60;;;;;;;17.77;54.75;99776.56;10393293;28;20391;-65
2021/09/19 08:51:03;;;;;;;4.97;3.33;;;;;;;18.06;54.02;99779.16;10393452;28;20293;-65
2021/09/19 08:56:06;;;;;;;5.00;3.28;;;;;;;18.22;53.43;99781.28;10393357;28;20053;-65
2021/09/19 09:01:08;;;;;;;4.75;3.30;;;;;;;17.92;52.37;99776.13;10392568;28;20420;-65
2021/09/19 09:06:14;;;;;;;4.15;3.08;;;;;;;17.87;52.29;99787.16;10392987;28;20140;-65
2021/09/19 09:11:16;;;;;;;4.88;3.13;;;;;;;17.88;52.05;99780.03;10392315;28;20211;-65
2021/09/19 09:16:19;;;;;;;4.47;2.88;;;;;;;17.58;53.15;99773.94;10393741;28;20058;-65
2021/09/19 09:21:23;;;;;;;4.53;2.97;;;;;;;17.84;52.68;99775.03;10392418;28;20057;-65
2021/09/19 09:26:33;;;;;;;4.63;2.97;;;;;;;18.84;50.84;99757.56;10393126;28;20057;-65
2021/09/19 09:31:40;;;;;;;5.07;3.03;;;;;;;19.34;50.19;99764.09;10375856;28;20061;-65
2021/09/19 09:36:45;;;;;;;4.57;2.80;;;;;;;19.71;48.64;99765.75;10392735;28;20718;-65
2021/09/19 09:41:47;;;;;;;4.57;3.30;;;;;;;19.46;47.81;99764.69;10390809;28;20075;-65
2021/09/19 09:46:49;;;;;;;3.53;2.70;;;;;;;19.73;47.89;99769.06;10392342;28;20064;-65
2021/09/19 09:51:51;;;;;;;3.83;2.90;;;;;;;20.07;45.72;99767.41;10391733;28;20060;-65
2021/09/19 09:56:53;;;;;;;4.28;2.92;;;;;;;20.12;45.58;99763.28;10391456;28;20057;-66
2021/09/19 10:01:59;;;;;;;3.92;2.80;;;;;;;20.08;45.46;99759.25;10391485;28;20067;-65
2021/09/19 10:07:01;;;;;;;3.50;2.60;;;;;;;19.98;45.13;99755.88;10391840;28;20136;-65
2021/09/19 10:12:03;;;;;;;5.65;3.03;;;;;;;19.55;45.35;99752.34;10393301;28;20072;-65
2021/09/19 10:17:05;;;;;;;4.55;2.90;;;;;;;19.39;45.56;99756.53;10399041;28;20057;-65
2021/09/19 10:22:08;;;;;;;4.10;2.88;;;;;;;19.21;46.40;99752.22;10398620;28;20132;-65
2021/09/19 10:27:24;;;;;;;5.03;2.90;;;;;;;19.31;45.73;99756.47;10398903;28;20067;-65
2021/09/19 10:32:33;;;;;;;5.75;3.10;;;;;;;19.22;45.67;99754.69;10398529;28;20137;-65
2021/09/19 10:37:51;;;;;;;4.90;2.87;;;;;;;19.45;45.95;99747.13;10397781;28;20478;-65
2021/09/19 10:42:53;;;;;;;3.90;3.00;;;;;;;19.69;45.88;99751.78;10398107;28;20421;-65
2021/09/19 10:47:58;;;;;;;4.45;2.95;;;;;;;19.77;45.61;99751.84;10397685;28;20059;-65
2021/09/19 10:53:13;;;;;;;4.13;2.80;;;;;;;20.08;44.12;99745.16;10397620;28;20525;-65
2021/09/19 10:58:20;;;;;;;6.90;3.20;;;;;;;19.96;44.30;99744.59;10397597;28;20054;-65
2021/09/19 11:03:28;;;;;;;4.45;3.00;;;;;;;19.96;44.56;99741.94;10397240;28;20061;-65
2021/09/19 11:08:39;;;;;;;3.97;2.80;;;;;;;19.97;44.63;99748.09;10396965;28;20085;-64
2021/09/19 11:13:45;;;;;;;5.50;3.05;;;;;;;19.64;44.96;99733.72;10397246;28;20132;-65
2021/09/19 11:18:56;;;;;;;6.80;3.40;;;;;;;19.72;44.80;99740.88;10396471;28;20061;-64
2021/09/19 11:24:08;;;;;;;4.53;3.40;;;;;;;19.81;45.06;99734.63;10396642;28;20095;-65
2021/09/19 11:29:11;;;;;;;3.88;3.00;;;;;;;19.91;44.87;99720.31;10396110;28;20132;-65
2021/09/19 11:34:15;;;;;;;3.88;2.92;;;;;;;20.32;43.85;99710.75;10396380;28;20049;-64
2021/09/19 11:39:18;;;;;;;5.03;3.00;;;;;;;20.96;42.30;99705.72;10395701;28;20072;-65
2021/09/19 11:44:20;;;;;;;4.00;2.90;;;;;;;20.70;42.52;99717.44;10395940;28;20079;-65
2021/09/19 11:49:21;;;;;;;4.38;3.28;;;;;;;20.32;43.53;99716.06;10395906;28;20041;-64
2021/09/19 11:54:23;;;;;;;6.25;2.97;;;;;;;20.55;43.33;99719.84;10395392;28;20153;-65
2021/09/19 11:59:25;;;;;;;3.88;2.97;;;;;;;20.80;42.14;99708.34;10395172;28;20062;-64
2021/09/19 12:04:28;;;;;;;4.00;2.80;;;;;;;20.59;43.04;99715.06;10394930;28;20054;-64
2021/09/19 12:09:30;;;;;;;3.97;3.00;;;;;;;21.00;42.63;99716.84;10394678;28;20144;-65
2021/09/19 12:14:31;;;;;;;6.00;3.10;;;;;;;20.64;42.06;99710.13;10394773;28;20053;-65
2021/09/19 12:19:35;;;;;;;4.18;3.20;;;;;;;20.63;42.56;99713.75;10394471;28;20096;-65
2021/09/19 12:24:38;;;;;;;4.30;3.22;;;;;;;20.68;42.29;99708.78;10394314;28;20049;-65
2021/09/19 12:29:42;;;;;;;3.85;2.83;;;;;;;20.69;42.16;99708.63;10393988;28;20858;-65
2021/09/19 12:34:46;;;;;;;4.00;2.67;;;;;;;20.92;42.66;99701.72;10393443;28;20484;-64
2021/09/19 12:40:03;;;;;;;5.03;2.90;;;;;;;21.08;40.70;99704.41;10393288;28;20063;-64
2021/09/19 12:45:09;;;;;;;4.15;2.72;;;;;;;21.10;41.78;99704.25;10393809;28;20057;-65
2021/09/19 12:50:14;;;;;;;5.53;2.88;;;;;;;21.15;41.87;99703.75;10393422;28;20049;-65
2021/09/19 12:55:20;;;;;;;5.32;2.83;;;;;;;21.06;41.41;99708.22;10392973;28;20148;-64
2021/09/19 13:00:26;;;;;;;4.18;2.60;;;;;;;20.70;41.27;99704.97;10393103;28;20162;-65
2021/09/19 13:05:28;;;;;;;4.97;2.60;;;;;;;20.28;41.76;99706.75;10392745;28;20049;-65
2021/09/19 13:10:31;;;;;;;3.78;2.50;;;;;;;20.19;42.78;99713.84;10392732;28;20425;-65
2021/09/19 13:15:34;;;;;;;4.13;2.55;;;;;;;19.92;43.10;99711.38;10392985;28;20481;-65
2021/09/19 13:20:35;;;;;;;4.00;2.90;;;;;;;19.68;43.41;99718.31;10392798;28;20064;-64
2021/09/19 13:25:37;;;;;;;5.75;2.65;;;;;;;19.55;44.34;99716.03;10392338;28;20049;-64
2021/09/19 13:30:39;;;;;;;5.82;2.80;;;;;;;19.45;44.51;99718.78;10392753;28;20060;-65
2021/09/19 13:35:40;;;;;;;5.18;2.80;;;;;;;19.47;45.11;99726.59;10392417;28;20180;-64
2021/09/19 13:40:42;;;;;;;4.38;2.60;;;;;;;19.26;45.19;99724.25;10392260;28;20516;-64
2021/09/19 13:45:44;;;;;;;5.22;2.65;;;;;;;19.41;45.24;99719.25;10392329;28;20053;-64
2021/09/19 13:50:45;;;;;;;3.67;2.67;;;;;;;19.48;44.77;99724.78;10400076;28;20129;-65
2021/09/19 13:55:47;;;;;;;3.40;2.60;;;;;;;19.46;44.78;99720.44;10399958;28;20049;-65
2021/09/19 14:00:49;;;;;;;3.75;2.70;;;;;;;19.32;45.32;99718.34;10400235;28;20080;-65
2021/09/19 14:05:54;;;;;;;4.05;2.60;;;;;;;19.33;45.39;99708.56;10399517;28;20057;-64
2021/09/19 14:10:56;;;;;;;4.57;2.50;;;;;;;19.28;45.70;99716.13;10399204;28;20136;-64
2021/09/19 14:15:57;;;;;;;4.43;2.70;;;;;;;19.31;45.05;99729.09;10399194;28;20421;-64
2021/09/19 14:20:59;;;;;;;6.80;3.05;;;;;;;19.12;44.87;99711.53;10399073;28;20505;-65
2021/09/19 14:26:01;;;;;;;3.65;2.50;;;;;;;19.07;45.16;99718.28;10398856;28;20053;-64
2021/09/19 14:31:03;;;;;;;4.60;2.83;;;;;;;19.19;44.74;99720.56;10398656;28;20539;-64
2021/09/19 14:36:04;;;;;;;6.22;2.80;;;;;;;19.33;44.95;99714.72;10398673;28;20216;-64
2021/09/19 14:41:06;;;;;;;4.78;2.97;;;;;;;19.40;44.93;99715.75;10398208;28;20053;-65
2021/09/19 14:46:10;;;;;;;4.03;2.90;;;;;;;19.42;44.69;99713.78;10398147;28;20069;-64
2021/09/19 14:51:12;;;;;;;3.75;2.90;;;;;;;19.39;44.53;99716.75;10398208;28;20236;-65
2021/09/19 14:56:14;;;;;;;6.55;2.88;;;;;;;19.45;44.60;99712.66;10397795;28;20417;-64
2021/09/19 15:01:16;;;;;;;5.15;2.90;;;;;;;19.95;43.39;99712.91;10396891;28;20061;-64
2021/09/19 15:06:19;;;;;;;4.22;2.78;;;;;;;19.35;43.70;99722.50;10397618;28;20609;-65
2021/09/19 15:11:20;;;;;;;6.28;3.25;;;;;;;19.13;44.78;99733.56;10357053;28;20056;-64
2021/09/19 15:16:23;;;;;;;4.90;3.58;;;;;;;18.90;44.39;99733.13;10356149;28;20060;-64
2021/09/19 15:21:25;;;;;;;5.32;3.40;;;;;;;18.52;45.25;99734.16;10355871;28;20537;-64
2021/09/19 15:26:29;;;;;;;5.68;3.10;;;;;;;18.22;45.97;99741.56;10356374;28;20418;-67
2021/09/19 15:31:31;;;;;;;7.18;3.60;;;;;;;18.01;46.62;99738.25;10355464;28;20225;-64
2021/09/19 15:36:33;;;;;;;6.22;3.40;;;;;;;18.25;47.07;99736.81;10354102;28;20054;-64
2021/09/19 15:41:34;;;;;;;7.32;3.47;;;;;;;18.34;46.18;99735.91;10355249;28;20165;-64
2021/09/19 15:46:36;;;;;;;5.32;3.42;;;;;;;18.16;46.45;99742.09;10354646;28;20061;-64
2021/09/19 15:51:38;;;;;;;4.93;2.95;;;;;;;17.92;46.66;99747.03;10354883;28;20060;-64
2021/09/19 15:56:40;;;;;;;6.38;3.25;;;;;;;17.93;46.57;99746.91;10354409;28;20061;-65
2021/09/19 16:01:42;;;;;;;8.57;3.00;;;;;;;17.85;46.12;99750.25;10353974;28;20072;-64
2021/09/19 16:06:43;;;;;;;6.68;3.13;;;;;;;17.82;46.19;99757.63;10357651;28;20104;-64
2021/09/19 16:11:45;;;;;;;5.95;3.30;;;;;;;17.33;46.90;99758.63;10393938;28;20462;-64
2021/09/19 16:16:47;;;;;;;5.25;3.20;;;;;;;17.20;47.59;99765.94;10394587;28;20144;-65
2021/09/19 16:21:48;;;;;;;5.88;3.90;;;;;;;17.23;47.59;99763.03;10394486;28;20088;-65
2021/09/19 16:26:50;;;;;;;8.85;3.60;;;;;;;17.14;47.66;99765.69;10394055;28;20049;-64
2021/09/19 16:31:52;;;;;;;7.03;3.60;;;;;;;17.15;47.85;99775.28;10394155;28;20049;-64
2021/09/19 16:36:53;;;;;;;5.97;3.80;;;;;;;16.94;48.42;99778.00;10393864;28;20060;-64
2021/09/19 16:41:55;;;;;;;7.80;3.65;;;;;;;16.96;48.66;99776.06;10393390;28;20520;-64
2021/09/19 16:46:57;;;;;;;6.93;3.25;;;;;;;16.93;48.23;99777.19;10393557;28;20052;-65
2021/09/19 16:51:58;;;;;;;6.25;3.42;;;;;;;16.66;48.21;99784.88;10393482;28;20057;-64
2021/09/19 16:57:00;;;;;;;4.85;3.33;;;;;;;16.45;48.64;99791.16;10393564;28;20137;-65
2021/09/19 17:02:02;;;;;;;5.53;3.50;;;;;;;16.38;48.78;99787.38;10392760;28;20042;-64
2021/09/19 17:07:04;;;;;;;5.20;3.38;;;;;;;16.29;49.39;99790.78;10393283;28;20045;-64
2021/09/19 17:12:06;;;;;;;7.90;3.50;;;;;;;16.34;48.77;99794.72;10392888;28;20474;-64
2021/09/19 17:17:08;;;;;;;6.30;3.65;;;;;;;16.32;48.42;99795.81;10392251;28;20425;-64
2021/09/19 17:22:10;;;;;;;5.97;3.30;;;;;;;16.04;48.77;99799.97;10396637;28;20220;-64
2021/09/19 17:27:13;;;;;;;6.85;3.45;;;;;;;15.92;49.02;99800.97;10401109;28;20421;-64
2021/09/19 17:32:14;;;;;;;6.18;3.58;;;;;;;15.86;50.15;99806.75;10400750;28;20061;-64
2021/09/19 17:37:16;;;;;;;6.57;3.17;;;;;;;15.77;50.03;99808.38;10400910;28;20057;-64
2021/09/19 17:42:18;;;;;;;7.30;3.40;;;;;;;15.88;49.59;99813.59;10400718;28;20065;-64
2021/09/19 17:47:20;;;;;;;5.65;3.33;;;;;;;15.87;49.66;99825.13;10400543;28;20056;-64
2021/09/19 17:52:22;;;;;;;7.00;3.50;;;;;;;15.83;49.93;99823.69;10400182;28;20516;-64
2021/09/19 17:57:24;;;;;;;6.50;3.47;;;;;;;15.70;49.77;99828.31;10400380;28;20436;-64
2021/09/19 18:02:26;;;;;;;4.57;3.70;;;;;;;15.70;49.58;99845.91;10399571;28;20137;-64
2021/09/19 18:07:29;;;;;;;8.07;3.55;;;;;;;15.66;50.30;99839.22;10399632;28;20057;-64
2021/09/19 18:12:30;;;;;;;6.65;3.35;;;;;;;15.78;49.76;99839.06;10399366;28;20076;-64
2021/09/19 18:17:32;;;;;;;6.35;3.53;;;;;;;15.53;50.11;99843.84;10399272;28;20528;-64
2021/09/19 18:22:37;;;;;;;5.03;3.55;;;;;;;15.30;50.02;99845.66;10398771;28;20064;-64
2021/09/19 18:27:42;;;;;;;6.28;3.67;;;;;;;15.33;51.08;99842.75;10397563;28;20501;-64
2021/09/19 18:32:43;;;;;;;8.25;3.80;;;;;;;15.27;50.57;99845.91;10398185;28;20269;-64
2021/09/19 18:37:46;;;;;;;12.10;3.60;;;;;;;15.25;51.57;99853.94;10399152;28;20119;-65
2021/09/19 18:42:47;;;;;;;5.65;4.10;;;;;;;15.27;50.99;99859.06;10398278;28;20224;-64
2021/09/19 18:47:51;;;;;;;6.35;3.92;;;;;;;14.97;51.11;99858.88;10396652;28;20050;-64
2021/09/19 18:52:52;;;;;;;6.60;3.90;;;;;;;14.86;52.13;99869.44;10397901;28;20506;-64
2021/09/19 18:57:54;;;;;;;5.57;3.70;;;;;;;14.74;52.11;99881.72;10398291;28;20053;-64
2021/09/19 19:02:56;;;;;;;6.57;4.47;;;;;;;14.62;52.22;99884.47;10434617;28;20209;-64
2021/09/19 19:07:58;;;;;;;7.90;4.15;;;;;;;14.36;52.39;99891.72;10438698;28;20049;-64
2021/09/19 19:13:00;;;;;;;7.32;4.40;;;;;;;14.13;52.64;99890.81;10436530;28;20045;-65
2021/09/19 19:18:02;;;;;;;5.78;4.28;;;;;;;14.01;53.56;99891.72;10438211;28;20136;-64
2021/09/19 19:23:04;;;;;;;6.13;4.70;;;;;;;13.95;53.86;99902.69;10437620;28;20135;-65
2021/09/19 19:28:06;;;;;;;8.02;4.82;;;;;;;13.95;54.28;99905.31;10437525;28;20455;-64
2021/09/19 19:33:08;;;;;;;7.25;5.18;;;;;;;13.81;54.17;99910.75;10399653;28;20055;-65
2021/09/19 19:38:10;;;;;;;6.30;4.90;;;;;;;13.53;54.67;99921.59;10396312;28;20219;-64
2021/09/19 19:43:12;;;;;;;8.80;5.10;;;;;;;13.45;54.92;99910.81;10395739;28;20383;-64
2021/09/19 19:48:13;;;;;;;8.25;5.28;;;;;;;13.35;54.88;99918.44;10395531;28;20049;-64
2021/09/19 19:53:15;;;;;;;8.30;5.70;;;;;;;13.32;55.15;99915.22;10395707;28;20053;-65
2021/09/19 19:58:17;;;;;;;8.35;5.20;;;;;;;13.33;55.47;99922.97;10395577;28;20486;-64
2021/09/19 20:03:18;;;;;;;7.72;5.90;;;;;;;13.30;55.02;99931.09;10394824;28;20064;-64
2021/09/19 20:08:21;;;;;;;9.55;5.72;;;;;;;13.28;55.29;99933.00;10395378;28;20054;-65
2021/09/19 20:13:22;;;;;;;9.20;6.13;;;;;;;13.19;55.11;99936.25;10394976;28;20076;-64
2021/09/19 20:18:24;;;;;;;8.15;5.97;;;;;;;13.26;55.80;99939.28;10394948;28;20312;-64
2021/09/19 20:23:26;;;;;;;12.18;6.35;;;;;;;13.24;56.32;99936.78;10394346;28;20064;-65
2021/09/19 20:28:27;;;;;;;8.38;6.15;;;;;;;13.20;56.00;99937.09;10394238;28;20061;-64
2021/09/19 20:33:29;;;;;;;9.00;6.40;;;;;;;13.22;56.00;99946.56;10394027;28;20053;-64
2021/09/19 20:38:31;;;;;;;9.48;6.18;;;;;;;13.21;55.66;99947.47;10394188;28;20048;-65
2021/09/19 20:43:33;;;;;;;7.10;5.93;;;;;;;13.21;55.98;99957.19;10393307;28;20496;-64
2021/09/19 20:48:34;;;;;;;8.30;6.00;;;;;;;13.31;55.51;99961.66;10392621;28;20068;-64
2021/09/19 20:53:36;;;;;;;7.30;6.03;;;;;;;13.35;55.89;99962.28;10393736;28;20498;-64
2021/09/19 20:58:38;;;;;;;8.57;6.35;;;;;;;13.60;55.60;99960.47;10375350;28;20103;-64
2021/09/19 21:03:41;;;;;;;9.75;6.05;;;;;;;13.76;55.47;99957.56;10392914;28;20056;-64
2021/09/19 21:08:43;;;;;;;6.93;5.50;;;;;;;13.76;55.52;99957.56;10392969;28;20057;-64
2021/09/19 21:13:45;;;;;;;8.57;6.00;;;;;;;13.82;55.27;99964.19;10392733;28;20453;-65
2021/09/19 21:18:46;;;;;;;8.73;6.38;;;;;;;13.94;55.21;99969.41;10392730;28;20524;-64
2021/09/19 21:23:48;;;;;;;10.95;6.15;;;;;;;13.96;55.10;99970.13;10392663;28;20063;-64
2021/09/19 21:28:49;;;;;;;8.32;6.38;;;;;;;14.05;54.22;99977.31;10392659;28;20046;-64
2021/09/19 21:33:51;;;;;;;10.43;6.40;;;;;;;13.88;54.39;99985.59;10391092;28;20045;-64
2021/09/19 21:38:53;;;;;;;10.05;6.53;;;;;;;13.91;54.04;99979.28;10392135;28;20140;-64
2021/09/19 21:43:55;;;;;;;10.63;7.15;;;;;;;13.92;54.43;99980.97;10392330;28;20145;-64
2021/09/19 21:48:56;;;;;;;13.52;6.47;;;;;;;13.99;54.22;99982.19;10392127;28;20501;-64
2021/09/19 21:53:58;;;;;;;8.52;6.03;;;;;;;13.82;54.03;99979.97;10392402;28;20060;-64
2021/09/19 21:59:00;;;;;;;8.95;6.18;;;;;;;13.55;53.81;99993.28;10391996;28;20136;-64
2021/09/19 22:04:02;;;;;;;8.18;6.70;;;;;;;13.56;54.43;99995.78;10391584;28;20140;-64
2021/09/19 22:09:08;;;;;;;9.20;6.20;;;;;;;13.78;54.03;99995.94;10395158;28;20148;-64
2021/09/19 22:14:16;;;;;;;9.43;6.07;;;;;;;13.79;53.84;99994.16;10399586;28;20530;-64
2021/09/19 22:19:18;;;;;;;7.90;6.10;;;;;;;13.65;54.07;100002.19;10399961;28;20083;-63
2021/09/19 22:24:20;;;;;;;8.43;6.38;;;;;;;13.53;54.05;99993.41;10398931;28;20087;-64
2021/09/19 22:29:22;;;;;;;7.63;5.95;;;;;;;13.45;53.99;100005.38;10399571;28;20346;-64
2021/09/19 22:34:24;;;;;;;8.55;6.10;;;;;;;13.40;53.97;100010.06;10398647;28;20468;-65
2021/09/19 22:39:25;;;;;;;8.63;5.80;;;;;;;13.45;54.32;100003.59;10399014;28;20062;-64
2021/09/19 22:44:27;;;;;;;8.57;6.03;;;;;;;13.50;54.06;100005.88;10398323;28;20049;-64
2021/09/19 22:49:29;;;;;;;7.72;6.05;;;;;;;13.42;54.25;100003.81;10397949;28;20486;-64
2021/09/19 22:54:31;;;;;;;9.00;5.85;;;;;;;13.39;53.80;100003.16;10398022;28;20494;-64
2021/09/19 22:59:32;;;;;;;8.35;6.65;;;;;;;13.31;53.93;99998.41;10396240;28;20505;-64
2021/09/19 23:04:34;;;;;;;9.45;5.80;;;;;;;13.29;54.19;99999.50;10397336;28;20053;-65
2021/09/19 23:09:36;;;;;;;8.38;5.90;;;;;;;13.43;53.94;100002.84;10397057;28;20492;-64
2021/09/19 23:14:37;;;;;;;8.23;6.13;;;;;;;13.40;53.84;100003.03;10395904;28;20076;-65
2021/09/19 23:19:39;;;;;;;10.07;5.82;;;;;;;13.37;53.91;100005.06;10396605;28;20153;-64
2021/09/19 23:24:41;;;;;;;7.90;6.03;;;;;;;13.40;53.95;100007.44;10397051;28;20095;-65